sensor_id;sensor_type;location;lat;lon;timestamp;P1;durP1;ratioP1;P2;durP2;ratioP2
4565;SDS011;2295;51.050;14.608;2023-07-29T00:01:06;1.80;;;1.70;;
4565;SDS011;2295;51.050;14.608;2023-07-29T00:03:34;1.63;;;1.53;;
4565;SDS011;2295;51.050;14.608;2023-07-29T00:06:02;1.70;;;1.60;;
4565;SDS011;2295;51.050;14.608;2023-07-29T00:08:30;1.50;;;1.40;;
4565;SDS011;2295;51.050;14.608;2023-07-29T00:10:59;4.37;;;1.50;;
4565;SDS011;2295;51.050;14.608;2023-07-29T00:13:28;2.90;;;1.70;;
4565;SDS011;2295;51.050;14.608;2023-07-29T00:15:57;1.63;;;1.53;;
4565;SDS011;2295;51.050;14.608;2023-07-29T00:18:25;2.23;;;1.60;;
4565;SDS011;2295;51.050;14.608;2023-07-29T00:20:54;1.70;;;1.60;;
4565;SDS011;2295;51.050;14.608;2023-07-29T00:23:24;6.60;;;1.90;;
4565;SDS011;2295;51.050;14.608;2023-07-29T00:25:52;1.60;;;1.50;;
4565;SDS011;2295;51.050;14.608;2023-07-29T00:28:20;3.83;;;1.80;;
4565;SDS011;2295;51.050;14.608;2023-07-29T00:30:50;4.13;;;1.60;;
4565;SDS011;2295;51.050;14.608;2023-07-29T00:33:19;1.77;;;1.60;;
4565;SDS011;2295;51.050;14.608;2023-07-29T00:35:47;3.70;;;1.70;;
4565;SDS011;2295;51.050;14.608;2023-07-29T00:38:15;2.90;;;1.50;;
4565;SDS011;2295;51.050;14.608;2023-07-29T00:40:44;3.37;;;2.93;;
4565;SDS011;2295;51.050;14.608;2023-07-29T00:43:12;1.77;;;1.67;;
4565;SDS011;2295;51.050;14.608;2023-07-29T00:45:40;1.60;;;1.50;;
4565;SDS011;2295;51.050;14.608;2023-07-29T00:48:13;1.90;;;1.80;;
4565;SDS011;2295;51.050;14.608;2023-07-29T00:50:42;1.97;;;1.67;;
4565;SDS011;2295;51.050;14.608;2023-07-29T00:53:10;1.90;;;1.80;;
4565;SDS011;2295;51.050;14.608;2023-07-29T00:55:39;1.60;;;1.50;;
4565;SDS011;2295;51.050;14.608;2023-07-29T00:58:07;1.80;;;1.70;;
4565;SDS011;2295;51.050;14.608;2023-07-29T01:00:36;1.50;;;1.37;;
4565;SDS011;2295;51.050;14.608;2023-07-29T01:03:04;2.27;;;1.40;;
4565;SDS011;2295;51.050;14.608;2023-07-29T01:05:36;2.63;;;1.43;;
4565;SDS011;2295;51.050;14.608;2023-07-29T01:08:15;1.70;;;1.60;;
4565;SDS011;2295;51.050;14.608;2023-07-29T01:10:55;1.70;;;1.60;;
4565;SDS011;2295;51.050;14.608;2023-07-29T01:13:33;2.97;;;1.70;;
4565;SDS011;2295;51.050;14.608;2023-07-29T01:16:10;1.70;;;1.60;;
4565;SDS011;2295;51.050;14.608;2023-07-29T01:18:45;5.53;;;1.90;;
4565;SDS011;2295;51.050;14.608;2023-07-29T01:21:17;4.13;;;1.70;;
4565;SDS011;2295;51.050;14.608;2023-07-29T01:23:48;4.30;;;1.77;;
4565;SDS011;2295;51.050;14.608;2023-07-29T01:26:20;1.77;;;1.67;;
4565;SDS011;2295;51.050;14.608;2023-07-29T01:28:48;1.80;;;1.70;;
4565;SDS011;2295;51.050;14.608;2023-07-29T01:31:23;6.20;;;1.60;;
4565;SDS011;2295;51.050;14.608;2023-07-29T01:33:59;2.60;;;2.40;;
4565;SDS011;2295;51.050;14.608;2023-07-29T01:36:37;1.97;;;1.87;;
4565;SDS011;2295;51.050;14.608;2023-07-29T01:39:12;1.90;;;1.60;;
4565;SDS011;2295;51.050;14.608;2023-07-29T01:41:43;4.90;;;1.73;;
4565;SDS011;2295;51.050;14.608;2023-07-29T01:44:13;4.60;;;1.83;;
4565;SDS011;2295;51.050;14.608;2023-07-29T01:46:43;2.33;;;1.57;;
4565;SDS011;2295;51.050;14.608;2023-07-29T01:49:12;7.03;;;1.63;;
4565;SDS011;2295;51.050;14.608;2023-07-29T01:51:40;2.27;;;2.07;;
4565;SDS011;2295;51.050;14.608;2023-07-29T01:54:08;6.67;;;2.40;;
4565;SDS011;2295;51.050;14.608;2023-07-29T01:56:38;1.70;;;1.60;;
4565;SDS011;2295;51.050;14.608;2023-07-29T01:59:06;4.60;;;2.20;;
4565;SDS011;2295;51.050;14.608;2023-07-29T02:01:35;2.50;;;1.80;;
4565;SDS011;2295;51.050;14.608;2023-07-29T02:04:03;7.97;;;2.13;;
4565;SDS011;2295;51.050;14.608;2023-07-29T02:06:32;2.63;;;1.60;;
4565;SDS011;2295;51.050;14.608;2023-07-29T02:09:00;3.30;;;2.10;;
4565;SDS011;2295;51.050;14.608;2023-07-29T02:11:30;4.60;;;1.90;;
4565;SDS011;2295;51.050;14.608;2023-07-29T02:14:00;1.97;;;1.80;;
4565;SDS011;2295;51.050;14.608;2023-07-29T02:16:28;3.97;;;1.70;;
4565;SDS011;2295;51.050;14.608;2023-07-29T02:18:59;3.83;;;1.80;;
4565;SDS011;2295;51.050;14.608;2023-07-29T02:21:27;1.83;;;1.63;;
4565;SDS011;2295;51.050;14.608;2023-07-29T02:23:55;4.80;;;1.90;;
4565;SDS011;2295;51.050;14.608;2023-07-29T02:26:24;4.70;;;2.00;;
4565;SDS011;2295;51.050;14.608;2023-07-29T02:28:52;1.90;;;1.80;;
4565;SDS011;2295;51.050;14.608;2023-07-29T02:31:22;3.57;;;1.77;;
4565;SDS011;2295;51.050;14.608;2023-07-29T02:33:52;3.03;;;1.97;;
4565;SDS011;2295;51.050;14.608;2023-07-29T02:36:20;2.10;;;1.90;;
4565;SDS011;2295;51.050;14.608;2023-07-29T02:38:48;7.23;;;2.20;;
4565;SDS011;2295;51.050;14.608;2023-07-29T02:41:17;5.03;;;2.27;;
4565;SDS011;2295;51.050;14.608;2023-07-29T02:43:47;1.80;;;1.70;;
4565;SDS011;2295;51.050;14.608;2023-07-29T02:46:17;2.30;;;1.80;;
4565;SDS011;2295;51.050;14.608;2023-07-29T02:48:47;2.20;;;2.00;;
4565;SDS011;2295;51.050;14.608;2023-07-29T02:51:15;2.20;;;2.10;;
4565;SDS011;2295;51.050;14.608;2023-07-29T02:53:43;2.30;;;2.10;;
4565;SDS011;2295;51.050;14.608;2023-07-29T02:56:11;2.33;;;2.00;;
4565;SDS011;2295;51.050;14.608;2023-07-29T02:58:40;2.90;;;1.73;;
4565;SDS011;2295;51.050;14.608;2023-07-29T03:01:08;3.30;;;2.20;;
4565;SDS011;2295;51.050;14.608;2023-07-29T03:03:36;3.20;;;2.10;;
4565;SDS011;2295;51.050;14.608;2023-07-29T03:06:07;3.63;;;1.90;;
4565;SDS011;2295;51.050;14.608;2023-07-29T03:08:36;1.73;;;1.63;;
4565;SDS011;2295;51.050;14.608;2023-07-29T03:11:05;2.08;;;1.98;;
4565;SDS011;2295;51.050;14.608;2023-07-29T03:13:34;2.57;;;1.60;;
4565;SDS011;2295;51.050;14.608;2023-07-29T03:16:06;3.70;;;2.00;;
4565;SDS011;2295;51.050;14.608;2023-07-29T03:18:35;2.03;;;1.83;;
4565;SDS011;2295;51.050;14.608;2023-07-29T03:21:03;3.03;;;1.98;;
4565;SDS011;2295;51.050;14.608;2023-07-29T03:23:33;6.18;;;1.85;;
4565;SDS011;2295;51.050;14.608;2023-07-29T03:26:02;4.45;;;1.95;;
4565;SDS011;2295;51.050;14.608;2023-07-29T03:28:37;10.50;;;2.50;;
4565;SDS011;2295;51.050;14.608;2023-07-29T03:31:06;3.10;;;1.70;;
4565;SDS011;2295;51.050;14.608;2023-07-29T03:33:35;2.60;;;1.97;;
4565;SDS011;2295;51.050;14.608;2023-07-29T03:36:03;3.05;;;2.13;;
4565;SDS011;2295;51.050;14.608;2023-07-29T03:38:33;2.37;;;2.00;;
4565;SDS011;2295;51.050;14.608;2023-07-29T03:41:06;4.03;;;2.28;;
4565;SDS011;2295;51.050;14.608;2023-07-29T03:43:35;2.33;;;2.10;;
4565;SDS011;2295;51.050;14.608;2023-07-29T03:46:03;3.40;;;2.30;;
4565;SDS011;2295;51.050;14.608;2023-07-29T03:48:35;2.17;;;1.77;;
4565;SDS011;2295;51.050;14.608;2023-07-29T03:51:03;4.37;;;2.27;;
4565;SDS011;2295;51.050;14.608;2023-07-29T03:53:31;3.20;;;2.10;;
4565;SDS011;2295;51.050;14.608;2023-07-29T03:56:02;1.93;;;1.83;;
4565;SDS011;2295;51.050;14.608;2023-07-29T03:58:30;2.10;;;2.00;;
4565;SDS011;2295;51.050;14.608;2023-07-29T04:00:58;1.87;;;1.77;;
4565;SDS011;2295;51.050;14.608;2023-07-29T04:03:27;3.57;;;1.90;;
4565;SDS011;2295;51.050;14.608;2023-07-29T04:05:55;10.13;;;3.00;;
4565;SDS011;2295;51.050;14.608;2023-07-29T04:08:24;3.23;;;1.83;;
4565;SDS011;2295;51.050;14.608;2023-07-29T04:10:53;2.27;;;2.07;;
4565;SDS011;2295;51.050;14.608;2023-07-29T04:13:22;2.10;;;1.90;;
4565;SDS011;2295;51.050;14.608;2023-07-29T04:15:50;2.20;;;2.00;;
4565;SDS011;2295;51.050;14.608;2023-07-29T04:18:21;2.70;;;2.07;;
4565;SDS011;2295;51.050;14.608;2023-07-29T04:20:49;2.00;;;1.90;;
4565;SDS011;2295;51.050;14.608;2023-07-29T04:23:18;2.60;;;2.37;;
4565;SDS011;2295;51.050;14.608;2023-07-29T04:25:46;4.60;;;1.93;;
4565;SDS011;2295;51.050;14.608;2023-07-29T04:28:17;2.73;;;2.53;;
4565;SDS011;2295;51.050;14.608;2023-07-29T04:30:49;2.50;;;2.20;;
4565;SDS011;2295;51.050;14.608;2023-07-29T04:33:17;4.60;;;2.80;;
4565;SDS011;2295;51.050;14.608;2023-07-29T04:35:45;2.13;;;2.03;;
4565;SDS011;2295;51.050;14.608;2023-07-29T04:38:14;3.97;;;2.30;;
4565;SDS011;2295;51.050;14.608;2023-07-29T04:40:42;5.37;;;2.40;;
4565;SDS011;2295;51.050;14.608;2023-07-29T04:43:10;7.33;;;2.50;;
4565;SDS011;2295;51.050;14.608;2023-07-29T04:45:43;4.30;;;3.20;;
4565;SDS011;2295;51.050;14.608;2023-07-29T04:48:12;4.07;;;2.20;;
4565;SDS011;2295;51.050;14.608;2023-07-29T04:50:40;4.13;;;2.70;;
4565;SDS011;2295;51.050;14.608;2023-07-29T04:53:08;6.10;;;3.10;;
4565;SDS011;2295;51.050;14.608;2023-07-29T04:55:37;2.37;;;2.17;;
4565;SDS011;2295;51.050;14.608;2023-07-29T04:58:05;2.30;;;2.20;;
4565;SDS011;2295;51.050;14.608;2023-07-29T05:00:34;2.37;;;2.07;;
4565;SDS011;2295;51.050;14.608;2023-07-29T05:03:03;2.70;;;2.37;;
4565;SDS011;2295;51.050;14.608;2023-07-29T05:05:33;2.80;;;2.30;;
4565;SDS011;2295;51.050;14.608;2023-07-29T05:08:01;4.77;;;2.53;;
4565;SDS011;2295;51.050;14.608;2023-07-29T05:10:30;3.00;;;2.70;;
4565;SDS011;2295;51.050;14.608;2023-07-29T05:12:59;3.00;;;2.80;;
4565;SDS011;2295;51.050;14.608;2023-07-29T05:15:27;10.13;;;2.53;;
4565;SDS011;2295;51.050;14.608;2023-07-29T05:17:57;4.13;;;2.40;;
4565;SDS011;2295;51.050;14.608;2023-07-29T05:20:26;2.80;;;2.13;;
4565;SDS011;2295;51.050;14.608;2023-07-29T05:22:55;2.87;;;2.20;;
4565;SDS011;2295;51.050;14.608;2023-07-29T05:25:23;2.23;;;1.90;;
4565;SDS011;2295;51.050;14.608;2023-07-29T05:27:52;3.07;;;2.20;;
4565;SDS011;2295;51.050;14.608;2023-07-29T05:30:20;1.97;;;1.70;;
4565;SDS011;2295;51.050;14.608;2023-07-29T05:32:49;2.80;;;1.47;;
4565;SDS011;2295;51.050;14.608;2023-07-29T05:35:17;1.60;;;1.50;;
4565;SDS011;2295;51.050;14.608;2023-07-29T05:37:47;1.80;;;1.70;;
4565;SDS011;2295;51.050;14.608;2023-07-29T05:40:17;2.20;;;1.40;;
4565;SDS011;2295;51.050;14.608;2023-07-29T05:42:46;4.13;;;1.70;;
4565;SDS011;2295;51.050;14.608;2023-07-29T05:45:14;1.60;;;1.50;;
4565;SDS011;2295;51.050;14.608;2023-07-29T05:47:43;1.77;;;1.30;;
4565;SDS011;2295;51.050;14.608;2023-07-29T05:50:11;2.93;;;1.90;;
4565;SDS011;2295;51.050;14.608;2023-07-29T05:52:40;3.07;;;1.20;;
4565;SDS011;2295;51.050;14.608;2023-07-29T05:55:09;1.23;;;1.13;;
4565;SDS011;2295;51.050;14.608;2023-07-29T05:57:38;1.20;;;1.10;;
4565;SDS011;2295;51.050;14.608;2023-07-29T06:00:10;3.57;;;1.10;;
4565;SDS011;2295;51.050;14.608;2023-07-29T06:02:39;2.10;;;0.90;;
4565;SDS011;2295;51.050;14.608;2023-07-29T06:05:08;1.70;;;1.00;;
4565;SDS011;2295;51.050;14.608;2023-07-29T06:07:36;0.80;;;0.80;;
4565;SDS011;2295;51.050;14.608;2023-07-29T06:10:05;1.33;;;1.20;;
4565;SDS011;2295;51.050;14.608;2023-07-29T06:12:36;1.33;;;1.23;;
4565;SDS011;2295;51.050;14.608;2023-07-29T06:15:07;1.17;;;0.90;;
4565;SDS011;2295;51.050;14.608;2023-07-29T06:17:36;1.00;;;0.90;;
4565;SDS011;2295;51.050;14.608;2023-07-29T06:20:05;1.87;;;0.90;;
4565;SDS011;2295;51.050;14.608;2023-07-29T06:22:34;1.27;;;1.10;;
4565;SDS011;2295;51.050;14.608;2023-07-29T06:25:02;0.90;;;0.90;;
4565;SDS011;2295;51.050;14.608;2023-07-29T06:27:31;0.90;;;0.90;;
4565;SDS011;2295;51.050;14.608;2023-07-29T06:30:01;0.97;;;0.90;;
4565;SDS011;2295;51.050;14.608;2023-07-29T06:32:30;1.30;;;1.00;;
4565;SDS011;2295;51.050;14.608;2023-07-29T06:34:59;1.77;;;1.00;;
4565;SDS011;2295;51.050;14.608;2023-07-29T06:37:27;1.27;;;0.90;;
4565;SDS011;2295;51.050;14.608;2023-07-29T06:39:55;1.57;;;1.00;;
4565;SDS011;2295;51.050;14.608;2023-07-29T06:42:24;0.90;;;0.90;;
4565;SDS011;2295;51.050;14.608;2023-07-29T06:44:52;1.27;;;1.17;;
4565;SDS011;2295;51.050;14.608;2023-07-29T06:47:22;1.83;;;1.00;;
4565;SDS011;2295;51.050;14.608;2023-07-29T06:49:50;2.60;;;1.30;;
4565;SDS011;2295;51.050;14.608;2023-07-29T06:52:22;2.67;;;1.17;;
4565;SDS011;2295;51.050;14.608;2023-07-29T06:54:50;1.43;;;1.17;;
4565;SDS011;2295;51.050;14.608;2023-07-29T06:57:18;2.00;;;0.87;;
4565;SDS011;2295;51.050;14.608;2023-07-29T06:59:47;0.90;;;0.90;;
4565;SDS011;2295;51.050;14.608;2023-07-29T07:02:15;1.47;;;0.90;;
4565;SDS011;2295;51.050;14.608;2023-07-29T07:04:45;1.43;;;0.90;;
4565;SDS011;2295;51.050;14.608;2023-07-29T07:07:14;0.90;;;0.90;;
4565;SDS011;2295;51.050;14.608;2023-07-29T07:09:43;0.70;;;0.60;;
4565;SDS011;2295;51.050;14.608;2023-07-29T07:12:11;1.10;;;0.70;;
4565;SDS011;2295;51.050;14.608;2023-07-29T07:14:40;0.70;;;0.70;;
4565;SDS011;2295;51.050;14.608;2023-07-29T07:17:08;0.80;;;0.80;;
4565;SDS011;2295;51.050;14.608;2023-07-29T07:19:42;3.73;;;0.80;;
4565;SDS011;2295;51.050;14.608;2023-07-29T07:22:11;0.80;;;0.80;;
4565;SDS011;2295;51.050;14.608;2023-07-29T07:24:40;0.90;;;0.90;;
4565;SDS011;2295;51.050;14.608;2023-07-29T07:27:08;0.80;;;0.80;;
4565;SDS011;2295;51.050;14.608;2023-07-29T07:29:36;2.40;;;0.80;;
4565;SDS011;2295;51.050;14.608;2023-07-29T07:32:05;1.20;;;0.93;;
4565;SDS011;2295;51.050;14.608;2023-07-29T07:34:34;0.90;;;0.90;;
4565;SDS011;2295;51.050;14.608;2023-07-29T07:37:02;0.70;;;0.70;;
4565;SDS011;2295;51.050;14.608;2023-07-29T07:39:32;0.80;;;0.80;;
4565;SDS011;2295;51.050;14.608;2023-07-29T07:42:01;0.67;;;0.67;;
4565;SDS011;2295;51.050;14.608;2023-07-29T07:44:29;2.10;;;0.93;;
4565;SDS011;2295;51.050;14.608;2023-07-29T07:46:58;0.80;;;0.80;;
4565;SDS011;2295;51.050;14.608;2023-07-29T07:49:30;1.27;;;1.17;;
4565;SDS011;2295;51.050;14.608;2023-07-29T07:51:59;3.53;;;0.87;;
4565;SDS011;2295;51.050;14.608;2023-07-29T07:54:27;1.43;;;0.80;;
4565;SDS011;2295;51.050;14.608;2023-07-29T07:56:57;2.57;;;1.00;;
4565;SDS011;2295;51.050;14.608;2023-07-29T07:59:25;5.27;;;1.10;;
4565;SDS011;2295;51.050;14.608;2023-07-29T08:01:53;0.93;;;0.93;;
4565;SDS011;2295;51.050;14.608;2023-07-29T08:04:22;0.90;;;0.90;;
4565;SDS011;2295;51.050;14.608;2023-07-29T08:06:50;2.23;;;1.10;;
4565;SDS011;2295;51.050;14.608;2023-07-29T08:09:19;0.90;;;0.90;;
4565;SDS011;2295;51.050;14.608;2023-07-29T08:11:47;0.90;;;0.90;;
4565;SDS011;2295;51.050;14.608;2023-07-29T08:14:17;2.50;;;0.80;;
4565;SDS011;2295;51.050;14.608;2023-07-29T08:16:45;1.10;;;1.00;;
4565;SDS011;2295;51.050;14.608;2023-07-29T08:19:13;0.80;;;0.80;;
4565;SDS011;2295;51.050;14.608;2023-07-29T08:21:42;2.73;;;0.90;;
4565;SDS011;2295;51.050;14.608;2023-07-29T08:24:10;3.07;;;0.90;;
4565;SDS011;2295;51.050;14.608;2023-07-29T08:26:39;0.80;;;0.80;;
4565;SDS011;2295;51.050;14.608;2023-07-29T08:29:07;2.70;;;0.90;;
4565;SDS011;2295;51.050;14.608;2023-07-29T08:31:37;1.00;;;1.00;;
4565;SDS011;2295;51.050;14.608;2023-07-29T08:34:05;4.10;;;1.00;;
4565;SDS011;2295;51.050;14.608;2023-07-29T08:36:34;4.50;;;0.93;;
4565;SDS011;2295;51.050;14.608;2023-07-29T08:39:03;0.80;;;0.80;;
4565;SDS011;2295;51.050;14.608;2023-07-29T08:41:32;0.80;;;0.80;;
4565;SDS011;2295;51.050;14.608;2023-07-29T08:44:09;0.80;;;0.80;;
4565;SDS011;2295;51.050;14.608;2023-07-29T08:46:44;0.80;;;0.80;;
4565;SDS011;2295;51.050;14.608;2023-07-29T08:49:15;0.80;;;0.80;;
4565;SDS011;2295;51.050;14.608;2023-07-29T08:51:46;0.90;;;0.90;;
4565;SDS011;2295;51.050;14.608;2023-07-29T08:54:15;0.90;;;0.90;;
4565;SDS011;2295;51.050;14.608;2023-07-29T08:56:44;0.80;;;0.80;;
4565;SDS011;2295;51.050;14.608;2023-07-29T08:59:13;0.93;;;0.83;;
4565;SDS011;2295;51.050;14.608;2023-07-29T09:01:44;1.00;;;1.00;;
4565;SDS011;2295;51.050;14.608;2023-07-29T09:04:12;1.20;;;1.03;;
4565;SDS011;2295;51.050;14.608;2023-07-29T09:06:41;1.27;;;1.20;;
4565;SDS011;2295;51.050;14.608;2023-07-29T09:09:13;2.03;;;1.13;;
4565;SDS011;2295;51.050;14.608;2023-07-29T09:11:41;2.63;;;1.20;;
4565;SDS011;2295;51.050;14.608;2023-07-29T09:14:10;4.57;;;1.47;;
4565;SDS011;2295;51.050;14.608;2023-07-29T09:16:40;1.10;;;1.00;;
4565;SDS011;2295;51.050;14.608;2023-07-29T09:19:10;1.37;;;1.20;;
4565;SDS011;2295;51.050;14.608;2023-07-29T09:21:39;1.73;;;1.20;;
4565;SDS011;2295;51.050;14.608;2023-07-29T09:24:08;1.33;;;1.23;;
4565;SDS011;2295;51.050;14.608;2023-07-29T09:26:36;1.00;;;1.00;;
4565;SDS011;2295;51.050;14.608;2023-07-29T09:29:06;3.67;;;1.10;;
4565;SDS011;2295;51.050;14.608;2023-07-29T09:31:34;1.50;;;1.40;;
4565;SDS011;2295;51.050;14.608;2023-07-29T09:34:03;1.83;;;1.30;;
4565;SDS011;2295;51.050;14.608;2023-07-29T09:36:33;2.23;;;1.13;;
4565;SDS011;2295;51.050;14.608;2023-07-29T09:39:02;1.83;;;1.30;;
4565;SDS011;2295;51.050;14.608;2023-07-29T09:41:31;1.20;;;1.10;;
4565;SDS011;2295;51.050;14.608;2023-07-29T09:44:02;2.07;;;1.20;;
4565;SDS011;2295;51.050;14.608;2023-07-29T09:46:32;0.90;;;0.90;;
4565;SDS011;2295;51.050;14.608;2023-07-29T09:49:03;2.77;;;1.20;;
4565;SDS011;2295;51.050;14.608;2023-07-29T09:51:34;3.77;;;1.20;;
4565;SDS011;2295;51.050;14.608;2023-07-29T09:54:05;10.97;;;1.30;;
4565;SDS011;2295;51.050;14.608;2023-07-29T09:56:34;1.37;;;1.27;;
4565;SDS011;2295;51.050;14.608;2023-07-29T09:59:09;4.70;;;1.13;;
4565;SDS011;2295;51.050;14.608;2023-07-29T10:01:38;2.30;;;1.20;;
4565;SDS011;2295;51.050;14.608;2023-07-29T10:04:07;1.70;;;1.33;;
4565;SDS011;2295;51.050;14.608;2023-07-29T10:06:40;1.30;;;1.20;;
4565;SDS011;2295;51.050;14.608;2023-07-29T10:09:11;2.23;;;1.33;;
4565;SDS011;2295;51.050;14.608;2023-07-29T10:11:40;1.70;;;1.53;;
4565;SDS011;2295;51.050;14.608;2023-07-29T10:14:10;2.40;;;1.30;;
4565;SDS011;2295;51.050;14.608;2023-07-29T10:16:42;1.90;;;1.80;;
4565;SDS011;2295;51.050;14.608;2023-07-29T10:19:13;2.30;;;2.10;;
4565;SDS011;2295;51.050;14.608;2023-07-29T10:21:46;2.17;;;1.73;;
4565;SDS011;2295;51.050;14.608;2023-07-29T10:24:21;4.50;;;2.50;;
4565;SDS011;2295;51.050;14.608;2023-07-29T10:26:56;2.80;;;2.70;;
4565;SDS011;2295;51.050;14.608;2023-07-29T10:29:28;2.40;;;2.30;;
4565;SDS011;2295;51.050;14.608;2023-07-29T10:32:01;2.40;;;2.20;;
4565;SDS011;2295;51.050;14.608;2023-07-29T10:34:33;2.40;;;2.30;;
4565;SDS011;2295;51.050;14.608;2023-07-29T10:37:04;2.50;;;1.80;;
4565;SDS011;2295;51.050;14.608;2023-07-29T10:39:39;1.87;;;1.77;;
4565;SDS011;2295;51.050;14.608;2023-07-29T10:42:20;1.63;;;1.53;;
4565;SDS011;2295;51.050;14.608;2023-07-29T10:44:50;4.60;;;1.50;;
4565;SDS011;2295;51.050;14.608;2023-07-29T10:47:20;1.90;;;1.80;;
4565;SDS011;2295;51.050;14.608;2023-07-29T10:49:51;2.77;;;1.47;;
4565;SDS011;2295;51.050;14.608;2023-07-29T10:52:32;2.70;;;1.40;;
4565;SDS011;2295;51.050;14.608;2023-07-29T10:58:07;1.67;;;1.57;;
4565;SDS011;2295;51.050;14.608;2023-07-29T11:00:44;2.00;;;1.80;;
4565;SDS011;2295;51.050;14.608;2023-07-29T11:03:13;2.40;;;1.40;;
4565;SDS011;2295;51.050;14.608;2023-07-29T11:05:49;1.80;;;1.70;;
4565;SDS011;2295;51.050;14.608;2023-07-29T11:08:20;1.80;;;1.70;;
4565;SDS011;2295;51.050;14.608;2023-07-29T11:10:57;1.80;;;1.70;;
4565;SDS011;2295;51.050;14.608;2023-07-29T11:13:28;2.10;;;1.60;;
4565;SDS011;2295;51.050;14.608;2023-07-29T11:15:57;1.83;;;1.73;;
4565;SDS011;2295;51.050;14.608;2023-07-29T11:18:27;1.40;;;1.30;;
4565;SDS011;2295;51.050;14.608;2023-07-29T11:20:57;1.90;;;1.80;;
4565;SDS011;2295;51.050;14.608;2023-07-29T11:23:31;1.33;;;1.23;;
4565;SDS011;2295;51.050;14.608;2023-07-29T11:26:00;2.83;;;1.60;;
4565;SDS011;2295;51.050;14.608;2023-07-29T11:28:29;7.57;;;1.30;;
4565;SDS011;2295;51.050;14.608;2023-07-29T11:30:58;2.70;;;1.17;;
4565;SDS011;2295;51.050;14.608;2023-07-29T11:33:27;0.97;;;0.97;;
4565;SDS011;2295;51.050;14.608;2023-07-29T11:35:56;2.00;;;1.17;;
4565;SDS011;2295;51.050;14.608;2023-07-29T11:38:24;5.37;;;1.60;;
4565;SDS011;2295;51.050;14.608;2023-07-29T11:40:58;1.27;;;1.00;;
4565;SDS011;2295;51.050;14.608;2023-07-29T11:43:29;1.10;;;1.00;;
4565;SDS011;2295;51.050;14.608;2023-07-29T11:45:57;1.20;;;1.10;;
4565;SDS011;2295;51.050;14.608;2023-07-29T11:48:32;2.30;;;1.10;;
4565;SDS011;2295;51.050;14.608;2023-07-29T11:51:01;1.10;;;1.00;;
4565;SDS011;2295;51.050;14.608;2023-07-29T11:53:39;2.03;;;1.00;;
4565;SDS011;2295;51.050;14.608;2023-07-29T11:56:11;4.03;;;1.00;;
4565;SDS011;2295;51.050;14.608;2023-07-29T11:58:40;1.00;;;1.00;;
4565;SDS011;2295;51.050;14.608;2023-07-29T12:01:13;2.07;;;1.10;;
4565;SDS011;2295;51.050;14.608;2023-07-29T12:03:41;5.90;;;1.23;;
4565;SDS011;2295;51.050;14.608;2023-07-29T12:06:11;0.97;;;0.97;;
4565;SDS011;2295;51.050;14.608;2023-07-29T12:08:40;1.27;;;1.17;;
4565;SDS011;2295;51.050;14.608;2023-07-29T12:11:16;1.13;;;1.13;;
4565;SDS011;2295;51.050;14.608;2023-07-29T12:13:48;1.20;;;1.10;;
4565;SDS011;2295;51.050;14.608;2023-07-29T12:16:16;12.27;;;1.23;;
4565;SDS011;2295;51.050;14.608;2023-07-29T12:18:45;3.80;;;1.20;;
4565;SDS011;2295;51.050;14.608;2023-07-29T12:21:18;8.30;;;2.30;;
4565;SDS011;2295;51.050;14.608;2023-07-29T12:23:47;23.20;;;4.37;;
4565;SDS011;2295;51.050;14.608;2023-07-29T12:26:18;9.03;;;2.40;;
4565;SDS011;2295;51.050;14.608;2023-07-29T12:28:47;4.20;;;1.90;;
4565;SDS011;2295;51.050;14.608;2023-07-29T12:31:17;7.70;;;3.63;;
4565;SDS011;2295;51.050;14.608;2023-07-29T12:33:45;5.90;;;2.07;;
4565;SDS011;2295;51.050;14.608;2023-07-29T12:36:14;2.37;;;1.57;;
4565;SDS011;2295;51.050;14.608;2023-07-29T12:38:44;4.50;;;2.10;;
4565;SDS011;2295;51.050;14.608;2023-07-29T12:41:13;5.00;;;1.80;;
4565;SDS011;2295;51.050;14.608;2023-07-29T12:43:43;5.90;;;2.20;;
4565;SDS011;2295;51.050;14.608;2023-07-29T12:46:11;6.80;;;2.07;;
4565;SDS011;2295;51.050;14.608;2023-07-29T12:48:42;5.03;;;1.50;;
4565;SDS011;2295;51.050;14.608;2023-07-29T12:51:11;11.10;;;2.67;;
4565;SDS011;2295;51.050;14.608;2023-07-29T12:53:39;4.87;;;1.50;;
4565;SDS011;2295;51.050;14.608;2023-07-29T12:56:08;2.60;;;1.50;;
4565;SDS011;2295;51.050;14.608;2023-07-29T12:58:36;3.43;;;1.17;;
4565;SDS011;2295;51.050;14.608;2023-07-29T13:01:06;2.80;;;1.27;;
4565;SDS011;2295;51.050;14.608;2023-07-29T13:03:35;3.97;;;1.43;;
4565;SDS011;2295;51.050;14.608;2023-07-29T13:06:04;2.60;;;1.43;;
4565;SDS011;2295;51.050;14.608;2023-07-29T13:08:32;1.97;;;1.00;;
4565;SDS011;2295;51.050;14.608;2023-07-29T13:11:01;3.67;;;1.00;;
4565;SDS011;2295;51.050;14.608;2023-07-29T13:13:29;1.53;;;1.20;;
4565;SDS011;2295;51.050;14.608;2023-07-29T13:15:58;3.53;;;1.10;;
4565;SDS011;2295;51.050;14.608;2023-07-29T13:18:29;2.10;;;1.00;;
4565;SDS011;2295;51.050;14.608;2023-07-29T13:20:58;2.63;;;1.00;;
4565;SDS011;2295;51.050;14.608;2023-07-29T13:23:27;1.13;;;1.03;;
4565;SDS011;2295;51.050;14.608;2023-07-29T13:25:56;1.80;;;1.33;;
4565;SDS011;2295;51.050;14.608;2023-07-29T13:28:24;2.20;;;1.30;;
4565;SDS011;2295;51.050;14.608;2023-07-29T13:30:53;1.30;;;1.20;;
4565;SDS011;2295;51.050;14.608;2023-07-29T13:33:21;1.30;;;1.20;;
4565;SDS011;2295;51.050;14.608;2023-07-29T13:35:51;3.53;;;1.20;;
4565;SDS011;2295;51.050;14.608;2023-07-29T13:38:19;1.63;;;1.40;;
4565;SDS011;2295;51.050;14.608;2023-07-29T13:40:48;1.30;;;1.20;;
4565;SDS011;2295;51.050;14.608;2023-07-29T13:43:17;2.50;;;1.50;;
4565;SDS011;2295;51.050;14.608;2023-07-29T13:45:46;2.80;;;1.10;;
4565;SDS011;2295;51.050;14.608;2023-07-29T13:48:17;1.97;;;1.10;;
4565;SDS011;2295;51.050;14.608;2023-07-29T13:50:46;1.53;;;1.10;;
4565;SDS011;2295;51.050;14.608;2023-07-29T13:53:18;1.47;;;1.10;;
4565;SDS011;2295;51.050;14.608;2023-07-29T13:55:47;5.07;;;1.13;;
4565;SDS011;2295;51.050;14.608;2023-07-29T13:58:15;1.27;;;1.03;;
4565;SDS011;2295;51.050;14.608;2023-07-29T14:00:47;1.23;;;0.93;;
4565;SDS011;2295;51.050;14.608;2023-07-29T14:03:15;1.30;;;1.00;;
4565;SDS011;2295;51.050;14.608;2023-07-29T14:05:44;1.10;;;1.00;;
4565;SDS011;2295;51.050;14.608;2023-07-29T14:08:20;0.90;;;0.87;;
4565;SDS011;2295;51.050;14.608;2023-07-29T14:10:49;2.63;;;0.83;;
4565;SDS011;2295;51.050;14.608;2023-07-29T14:13:17;1.00;;;0.90;;
4565;SDS011;2295;51.050;14.608;2023-07-29T14:15:46;1.67;;;1.03;;
4565;SDS011;2295;51.050;14.608;2023-07-29T14:18:14;0.90;;;0.90;;
4565;SDS011;2295;51.050;14.608;2023-07-29T14:20:42;0.87;;;0.87;;
4565;SDS011;2295;51.050;14.608;2023-07-29T14:23:12;3.07;;;0.90;;
4565;SDS011;2295;51.050;14.608;2023-07-29T14:25:41;1.03;;;0.93;;
4565;SDS011;2295;51.050;14.608;2023-07-29T14:28:09;2.80;;;1.00;;
4565;SDS011;2295;51.050;14.608;2023-07-29T14:30:37;1.53;;;1.00;;
4565;SDS011;2295;51.050;14.608;2023-07-29T14:33:07;1.23;;;1.00;;
4565;SDS011;2295;51.050;14.608;2023-07-29T14:35:36;1.10;;;1.00;;
4565;SDS011;2295;51.050;14.608;2023-07-29T14:38:04;1.20;;;1.10;;
4565;SDS011;2295;51.050;14.608;2023-07-29T14:40:34;1.43;;;1.07;;
4565;SDS011;2295;51.050;14.608;2023-07-29T14:43:02;1.20;;;0.80;;
4565;SDS011;2295;51.050;14.608;2023-07-29T14:45:31;1.90;;;0.90;;
4565;SDS011;2295;51.050;14.608;2023-07-29T14:48:02;1.40;;;0.90;;
4565;SDS011;2295;51.050;14.608;2023-07-29T14:50:34;1.30;;;0.90;;
4565;SDS011;2295;51.050;14.608;2023-07-29T14:53:02;4.40;;;1.00;;
4565;SDS011;2295;51.050;14.608;2023-07-29T14:55:31;1.60;;;1.30;;
4565;SDS011;2295;51.050;14.608;2023-07-29T14:58:01;2.10;;;1.50;;
4565;SDS011;2295;51.050;14.608;2023-07-29T15:00:29;1.50;;;1.20;;
4565;SDS011;2295;51.050;14.608;2023-07-29T15:02:58;1.20;;;1.10;;
4565;SDS011;2295;51.050;14.608;2023-07-29T15:05:26;1.83;;;1.30;;
4565;SDS011;2295;51.050;14.608;2023-07-29T15:07:55;2.47;;;2.03;;
4565;SDS011;2295;51.050;14.608;2023-07-29T15:10:23;5.87;;;1.83;;
4565;SDS011;2295;51.050;14.608;2023-07-29T15:12:57;1.97;;;1.30;;
4565;SDS011;2295;51.050;14.608;2023-07-29T15:15:27;2.10;;;1.50;;
4565;SDS011;2295;51.050;14.608;2023-07-29T15:17:56;1.50;;;1.40;;